Time;durP1;ratioP1;P1;durP2;ratioP2;P2;SDS_P1;SDS_P2;PMS_P1;PMS_P2;Temp;Humidity;BMP_temperature;BMP_pressure;BME280_temperature;BME280_humidity;BME280_pressure;Samples;Min_cycle;Max_cycle;Signal;HPM_P1;HPM_P2
2022/10/31 00:00:55;;;;;;;1999.90;999.90;;;;;;;9.63;100.00;100960.88;5006586;28;20076;-74
2022/10/31 00:03:20;;;;;;;1999.90;999.90;;;;;;;9.60;100.00;100960.88;5003470;28;20049;-74
2022/10/31 00:05:48;;;;;;;1999.90;999.90;;;;;;;9.57;100.00;100960.00;5007000;28;20069;-74
2022/10/31 00:08:14;;;;;;;1999.90;999.90;;;;;;;9.61;100.00;100964.41;5006411;28;20064;-74
2022/10/31 00:10:41;;;;;;;1999.90;999.90;;;;;;;9.62;100.00;100964.41;5005572;28;20043;-74
2022/10/31 00:13:07;;;;;;;1999.90;999.90;;;;;;;9.63;100.00;100954.75;5006211;28;20034;-74
2022/10/31 00:15:37;;;;;;;1999.90;999.90;;;;;;;9.65;100.00;100963.56;5002806;28;20424;-74
2022/10/31 00:18:03;;;;;;;1999.90;999.90;;;;;;;9.62;100.00;100969.69;5005192;28;20026;-74
2022/10/31 00:20:29;;;;;;;1999.90;999.90;;;;;;;9.61;100.00;100965.28;5003497;28;20508;-74
2022/10/31 00:22:58;;;;;;;1999.90;999.90;;;;;;;9.57;100.00;100965.28;5010405;28;20109;-74
2022/10/31 00:25:23;;;;;;;1999.90;999.90;;;;;;;9.53;100.00;100964.34;5006207;28;20038;-74
2022/10/31 00:27:48;;;;;;;1999.90;999.90;;;;;;;9.48;100.00;100970.47;5005848;28;20038;-73
2022/10/31 00:30:14;;;;;;;1999.90;999.90;;;;;;;9.46;100.00;100969.59;4999128;28;20118;-74
2022/10/31 00:32:40;;;;;;;1999.90;999.90;;;;;;;9.43;100.00;100970.44;5004311;28;20030;-74
2022/10/31 00:35:06;;;;;;;1999.90;999.90;;;;;;;9.42;100.00;100976.59;5004632;28;20400;-74
2022/10/31 00:37:31;;;;;;;1999.90;999.90;;;;;;;9.41;100.00;100974.84;5006302;28;20523;-74
2022/10/31 00:39:57;;;;;;;1999.90;999.90;;;;;;;9.42;100.00;100973.97;5004788;28;20057;-74
2022/10/31 00:42:22;;;;;;;1999.90;999.90;;;;;;;9.41;100.00;100982.75;5005800;28;20053;-74
2022/10/31 00:44:47;;;;;;;1999.90;999.90;;;;;;;9.38;100.00;100985.38;5003032;28;20039;-74
2022/10/31 00:47:13;;;;;;;1999.90;999.90;;;;;;;9.34;100.00;100979.19;5003017;28;20095;-74
2022/10/31 00:49:38;;;;;;;1999.90;999.90;;;;;;;9.33;100.00;100987.97;5004507;28;20030;-74
2022/10/31 00:52:04;;;;;;;1999.90;999.90;;;;;;;9.34;100.00;100986.22;5002110;28;20068;-74
2022/10/31 00:54:30;;;;;;;1999.90;999.90;;;;;;;9.31;100.00;100980.94;5007857;28;20392;-74
2022/10/31 00:56:56;;;;;;;1999.90;999.90;;;;;;;9.32;100.00;100988.81;5002052;28;20053;-74
2022/10/31 00:59:22;;;;;;;1999.90;999.90;;;;;;;9.33;100.00;100989.72;5004855;28;20057;-74
2022/10/31 01:01:47;;;;;;;1999.90;999.90;;;;;;;9.33;100.00;100985.34;5003284;28;20042;-74
2022/10/31 01:04:12;;;;;;;1999.90;999.90;;;;;;;9.32;100.00;100988.81;5002313;28;20034;-74
2022/10/31 01:06:38;;;;;;;1999.90;999.90;;;;;;;9.29;100.00;100991.44;5007278;28;20030;-74
2022/10/31 01:09:03;;;;;;;1999.90;999.90;;;;;;;9.28;100.00;100991.47;5000978;28;20097;-74
2022/10/31 01:11:28;;;;;;;1999.90;999.90;;;;;;;9.26;100.00;100990.56;5001986;28;20034;-73
2022/10/31 01:13:54;;;;;;;1999.90;999.90;;;;;;;9.27;100.00;100993.19;5003773;28;20440;-74
2022/10/31 01:16:22;;;;;;;1999.90;999.90;;;;;;;9.28;100.00;100987.06;4997909;28;20038;-74
2022/10/31 01:18:49;;;;;;;1999.90;999.90;;;;;;;9.25;100.00;100991.41;5002443;28;20046;-74
2022/10/31 01:21:20;;;;;;;1999.90;999.90;;;;;;;9.26;100.00;100990.56;5002538;28;20042;-74
2022/10/31 01:23:48;;;;;;;1999.90;999.90;;;;;;;9.24;100.00;100998.44;5000665;28;20042;-74
2022/10/31 01:26:19;;;;;;;1999.90;999.90;;;;;;;9.26;100.00;100998.47;5003682;28;20137;-74
2022/10/31 01:28:56;;;;;;;1999.90;999.90;;;;;;;9.25;100.00;100996.69;5004870;28;20120;-74
2022/10/31 01:31:25;;;;;;;1999.90;999.90;;;;;;;9.22;100.00;100994.91;5002284;28;20042;-74
2022/10/31 01:33:50;;;;;;;1999.90;999.90;;;;;;;9.23;100.00;100995.81;5002992;28;20045;-74
2022/10/31 01:36:19;;;;;;;1999.90;999.90;;;;;;;9.21;100.00;100994.03;5002234;28;20034;-74
2022/10/31 01:38:46;;;;;;;1999.90;999.90;;;;;;;9.27;100.00;100998.44;5000055;28;20432;-74
2022/10/31 01:41:13;;;;;;;1999.90;999.90;;;;;;;9.25;100.00;100989.69;5003080;28;20045;-74
2022/10/31 01:43:46;;;;;;;1999.90;999.90;;;;;;;9.23;100.00;100999.31;5001160;28;20034;-74
2022/10/31 01:46:12;;;;;;;1999.90;999.90;;;;;;;9.20;100.00;100999.31;5001704;28;20113;-74
2022/10/31 01:48:39;;;;;;;1999.90;999.90;;;;;;;9.17;100.00;100996.66;4998816;28;20045;-74
2022/10/31 01:51:05;;;;;;;1999.90;999.90;;;;;;;9.14;100.00;100993.97;5007140;28;20077;-74
2022/10/31 01:53:31;;;;;;;1999.90;999.90;;;;;;;9.13;100.00;100994.84;5007483;28;20046;-74
2022/10/31 01:55:58;;;;;;;1999.90;999.90;;;;;;;9.11;100.00;100997.47;5002851;28;20042;-74
2022/10/31 01:58:27;;;;;;;1999.90;999.90;;;;;;;9.08;100.00;101002.72;5002202;28;20046;-75
2022/10/31 02:00:57;;;;;;;1999.90;999.90;;;;;;;9.09;100.00;101004.50;4999947;28;20432;-74
2022/10/31 02:03:23;;;;;;;1999.90;999.90;;;;;;;9.08;100.00;101007.09;5004965;28;20041;-74
2022/10/31 02:05:49;;;;;;;1999.90;999.90;;;;;;;9.03;100.00;101001.78;5003450;28;20073;-74
2022/10/31 02:08:21;;;;;;;1999.90;999.90;;;;;;;9.03;100.00;101009.69;5003504;28;20489;-74
2022/10/31 02:10:49;;;;;;;1999.90;999.90;;;;;;;9.03;100.00;101008.81;5003601;28;20034;-74
2022/10/31 02:13:15;;;;;;;1999.90;999.90;;;;;;;9.04;100.00;101010.56;5002275;28;20041;-74
2022/10/31 02:15:53;;;;;;;1999.90;999.90;;;;;;;9.01;100.00;101008.78;4998486;28;20070;-74
2022/10/31 02:18:20;;;;;;;1999.90;999.90;;;;;;;8.94;100.00;101015.78;5003116;28;20041;-74
2022/10/31 02:21:16;;;;;;;1999.90;999.90;;;;;;;8.91;100.00;101014.88;5000457;28;20030;-74
2022/10/31 02:24:31;;;;;;;1999.90;999.90;;;;;;;8.88;100.00;101022.72;5006332;28;20026;-74
2022/10/31 02:27:12;;;;;;;1999.90;999.90;;;;;;;8.87;100.00;101024.47;5002402;28;20052;-74
2022/10/31 02:29:44;;;;;;;1999.90;999.90;;;;;;;8.88;100.00;101020.09;4999616;28;20108;-74
2022/10/31 02:32:32;;;;;;;1999.90;999.90;;;;;;;8.86;100.00;101019.22;5001239;28;20038;-75
2022/10/31 02:35:26;;;;;;;1999.90;999.90;;;;;;;8.86;100.00;101019.22;5000775;28;20027;-74
2022/10/31 02:38:08;;;;;;;1999.90;999.90;;;;;;;8.86;100.00;101021.84;4997237;28;20053;-74
2022/10/31 02:40:39;;;;;;;1999.90;999.90;;;;;;;8.85;100.00;101020.94;5016765;28;20041;-73
2022/10/31 02:43:35;;;;;;;1999.90;999.90;;;;;;;8.86;100.00;101021.84;5001209;28;20033;-74
2022/10/31 02:46:10;;;;;;;1999.90;999.90;;;;;;;8.85;100.00;101022.69;5002101;28;20045;-74
2022/10/31 02:48:39;;;;;;;1999.90;999.90;;;;;;;8.87;100.00;101026.25;5001907;28;20038;-74
2022/10/31 02:51:05;;;;;;;1999.90;999.90;;;;;;;8.82;100.00;101035.84;5002236;28;20033;-74
2022/10/31 02:53:35;;;;;;;1999.90;999.90;;;;;;;8.82;100.00;101020.06;5005702;28;20772;-74
2022/10/31 02:56:10;;;;;;;1999.90;999.90;;;;;;;8.81;100.00;101024.44;5015887;28;20031;-74
2022/10/31 02:58:42;;;;;;;1999.90;999.90;;;;;;;8.82;100.00;101028.81;4999781;28;20034;-74
2022/10/31 03:01:44;;;;;;;1999.90;999.90;;;;;;;8.82;100.00;101030.59;5002446;28;20030;-74
2022/10/31 03:04:30;;;;;;;1999.90;999.90;;;;;;;8.79;100.00;101039.31;5021864;28;20057;-74
2022/10/31 03:07:07;;;;;;;1999.90;999.90;;;;;;;8.74;100.00;101036.66;5005771;28;20038;-74
2022/10/31 03:09:41;;;;;;;1999.90;999.90;;;;;;;8.75;100.00;101035.78;5002238;28;20476;-75
2022/10/31 03:12:35;;;;;;;1999.90;999.90;;;;;;;8.75;100.00;101038.44;4996826;28;20030;-73
2022/10/31 03:15:18;;;;;;;1999.90;999.90;;;;;;;8.75;100.00;101038.44;4998334;28;20100;-74
2022/10/31 03:18:09;;;;;;;1999.90;999.90;;;;;;;8.74;100.00;101039.28;4999779;28;20039;-74
2022/10/31 03:21:06;;;;;;;1999.90;999.90;;;;;;;8.73;100.00;101047.19;4994931;28;20053;-74
2022/10/31 03:23:36;;;;;;;1999.90;999.90;;;;;;;8.69;100.00;101048.88;4998065;28;20065;-74
2022/10/31 03:26:04;;;;;;;1999.90;999.90;;;;;;;8.68;100.00;101051.50;4999811;28;20088;-74
2022/10/31 03:28:35;;;;;;;1999.90;999.90;;;;;;;8.65;100.00;101055.00;5001221;28;20030;-74
2022/10/31 03:31:05;;;;;;;1999.90;999.90;;;;;;;8.67;100.00;101058.53;4997907;28;20088;-74
2022/10/31 03:33:34;;;;;;;1999.90;999.90;;;;;;;8.72;100.00;101059.47;5005129;28;20555;-74
2022/10/31 03:36:04;;;;;;;1999.90;999.90;;;;;;;8.69;100.00;101055.91;4999813;28;20029;-74
2022/10/31 03:38:34;;;;;;;1999.90;999.90;;;;;;;8.68;100.00;101057.66;5002327;28;20547;-74
2022/10/31 03:41:04;;;;;;;1999.90;999.90;;;;;;;8.67;100.00;101062.88;5002399;28;20413;-74
2022/10/31 03:43:37;;;;;;;1999.90;999.90;;;;;;;8.67;100.00;101069.06;5000195;28;20698;-74
2022/10/31 03:46:03;;;;;;;;;;;;;;;8.65;100.00;101068.16;5000024;28;20034;-74
2022/10/31 03:48:28;;;;;;;1999.90;999.90;;;;;;;8.62;100.00;101068.13;4981460;28;20056;-74
2022/10/31 03:51:06;;;;;;;1999.90;999.90;;;;;;;8.55;100.00;101075.06;5005348;28;20041;-74
2022/10/31 03:53:41;;;;;;;1999.90;999.90;;;;;;;8.50;100.00;101076.75;5000063;28;20416;-74
2022/10/31 03:56:22;;;;;;;1999.90;999.90;;;;;;;8.49;100.00;101072.38;5005302;28;20455;-74
2022/10/31 03:58:58;;;;;;;1999.90;999.90;;;;;;;8.54;100.00;101072.41;4997329;28;20049;-74
2022/10/31 04:01:25;;;;;;;1999.90;999.90;;;;;;;8.56;100.00;101074.19;4988041;28;20030;-74
2022/10/31 04:03:51;;;;;;;1999.90;999.90;;;;;;;8.58;100.00;101079.47;5017899;22;20169;-74
2022/10/31 04:06:19;;;;;;;1999.90;999.90;;;;;;;8.62;100.00;101077.75;5010352;28;20081;-75
2022/10/31 04:08:50;;;;;;;1999.90;999.90;;;;;;;8.64;100.00;101087.41;5011000;28;20536;-75
2022/10/31 04:11:21;;;;;;;1999.90;999.90;;;;;;;8.62;100.00;101078.66;5028379;28;20069;-75
2022/10/31 04:13:57;;;;;;;1999.90;999.90;;;;;;;8.54;100.00;101073.31;5009999;28;20044;-75
2022/10/31 04:16:24;;;;;;;1999.90;999.90;;;;;;;8.53;100.00;101078.53;4990892;28;20451;-75
2022/10/31 04:18:50;;;;;;;1999.90;999.90;;;;;;;8.52;100.00;101079.41;4993796;28;20042;-75
2022/10/31 04:21:16;;;;;;;1999.90;999.90;;;;;;;8.52;100.00;101080.28;4993671;28;20125;-75
2022/10/31 04:23:42;;;;;;;1999.90;999.90;;;;;;;8.50;100.00;101076.75;4993241;28;20251;-74
2022/10/31 04:26:14;;;;;;;1999.90;999.90;;;;;;;8.54;100.00;101080.28;4992949;28;20034;-74
2022/10/31 04:28:42;;;;;;;1999.90;999.90;;;;;;;8.52;100.00;101084.69;4993173;28;20044;-74
2022/10/31 04:31:11;;;;;;;1999.90;999.90;;;;;;;8.52;100.00;101069.75;4992006;28;20050;-75
2022/10/31 04:33:37;;;;;;;1999.90;999.90;;;;;;;8.53;100.00;101081.16;4992780;28;20038;-75
2022/10/31 04:36:04;;;;;;;1999.90;999.90;;;;;;;8.56;100.00;101070.66;4989915;28;20125;-75
2022/10/31 04:38:30;;;;;;;1999.90;999.90;;;;;;;8.59;100.00;101073.31;4993482;28;20526;-75
2022/10/31 04:40:56;;;;;;;1999.90;999.90;;;;;;;8.60;100.00;101075.13;4990422;28;20030;-75
2022/10/31 04:43:39;;;;;;;1999.90;999.90;;;;;;;8.56;100.00;101073.31;4991900;28;20050;-75
2022/10/31 04:46:05;;;;;;;1999.90;999.90;;;;;;;8.51;100.00;101088.16;4990436;28;20042;-75
2022/10/31 04:48:30;;;;;;;1999.90;999.90;;;;;;;8.54;100.00;101077.66;4992238;28;20061;-75
2022/10/31 04:51:00;;;;;;;1999.90;999.90;;;;;;;8.55;100.00;101077.69;4992864;28;20026;-75
2022/10/31 04:53:26;;;;;;;1999.90;999.90;;;;;;;8.56;100.00;101078.56;4987129;28;20030;-75
2022/10/31 04:56:24;;;;;;;1999.90;999.90;;;;;;;8.55;100.00;101087.34;4993627;28;20509;-75
2022/10/31 04:58:55;;;;;;;1999.90;999.90;;;;;;;8.54;100.00;101086.47;4994288;28;20037;-75
2022/10/31 05:01:22;;;;;;;1999.90;999.90;;;;;;;8.54;100.00;101093.44;4992815;28;20519;-75
2022/10/31 05:03:49;;;;;;;1999.90;999.90;;;;;;;8.49;100.00;101090.78;4993662;28;20121;-75
2022/10/31 05:06:16;;;;;;;1999.90;999.90;;;;;;;8.45;100.00;101091.59;4991710;28;20042;-75
2022/10/31 05:08:41;;;;;;;1999.90;999.90;;;;;;;8.40;100.00;101089.78;4989952;28;20495;-74
2022/10/31 05:11:08;;;;;;;1999.90;999.90;;;;;;;8.35;100.00;101092.31;4991317;28;20047;-74
2022/10/31 05:13:33;;;;;;;1999.90;999.90;;;;;;;8.35;100.00;101092.31;4991884;28;20034;-75
2022/10/31 05:16:11;;;;;;;1999.90;999.90;;;;;;;8.30;100.00;101089.63;4989303;28;20061;-74
2022/10/31 05:18:54;;;;;;;1999.90;999.90;;;;;;;8.25;100.00;101090.44;4993520;28;20480;-75
2022/10/31 05:21:39;;;;;;;1999.90;999.90;;;;;;;8.20;100.00;101092.13;4992203;28;20100;-75
2022/10/31 05:24:04;;;;;;;1999.90;999.90;;;;;;;8.16;100.00;101096.47;4988457;28;20042;-75
2022/10/31 05:26:31;;;;;;;1999.90;999.90;;;;;;;8.14;100.00;101098.19;4993301;28;20034;-75
2022/10/31 05:28:56;;;;;;;1999.90;999.90;;;;;;;8.12;100.00;101094.66;4990102;28;20042;-75
2022/10/31 05:31:22;;;;;;;1999.90;999.90;;;;;;;8.09;100.00;101100.75;4992168;28;20504;-75
2022/10/31 05:33:49;;;;;;;1999.90;999.90;;;;;;;8.06;100.00;101099.84;4991717;28;20040;-76
2022/10/31 05:36:43;;;;;;;1999.90;999.90;;;;;;;8.04;100.00;101096.31;4992990;28;20042;-75
2022/10/31 05:39:16;;;;;;;1999.90;999.90;;;;;;;8.00;100.00;101105.91;4990210;28;20038;-75
2022/10/31 05:41:46;;;;;;;1999.90;999.90;;;;;;;7.94;100.00;101102.31;4992106;28;20030;-75
2022/10/31 05:44:19;;;;;;;1999.90;999.90;;;;;;;7.97;100.00;101110.25;4991736;28;20065;-75
2022/10/31 05:47:07;;;;;;;1999.90;999.90;;;;;;;7.95;100.00;101106.72;4987899;28;20040;-75
2022/10/31 05:49:35;;;;;;;1999.90;999.90;;;;;;;8.01;100.00;101112.03;4992298;28;20045;-75
2022/10/31 05:52:38;;;;;;;1999.90;999.90;;;;;;;8.00;100.00;101105.03;4989841;28;20509;-75
2022/10/31 05:55:14;;;;;;;1999.90;999.90;;;;;;;8.00;100.00;101105.91;4986544;28;20038;-75
2022/10/31 05:57:52;;;;;;;1999.90;999.90;;;;;;;8.06;100.00;101110.38;4986611;28;20058;-75
2022/10/31 06:00:18;;;;;;;1999.90;999.90;;;;;;;8.13;100.00;101104.34;4988242;28;20092;-75
2022/10/31 06:02:47;;;;;;;1999.90;999.90;;;;;;;8.12;100.00;101107.81;4991412;28;20058;-75
2022/10/31 06:05:24;;;;;;;1999.90;999.90;;;;;;;8.19;100.00;101117.53;4987792;28;20030;-75
2022/10/31 06:07:51;;;;;;;1999.90;999.90;;;;;;;8.17;100.00;101114.00;4992913;28;20033;-75
2022/10/31 06:10:16;;;;;;;1999.90;999.90;;;;;;;8.20;100.00;101116.69;4992130;28;20038;-75
2022/10/31 06:12:43;;;;;;;1999.90;999.90;;;;;;;8.27;100.00;101121.16;4991287;28;20026;-75
2022/10/31 06:15:15;;;;;;;1999.90;999.90;;;;;;;8.32;100.00;101124.72;4990551;28;20412;-75
2022/10/31 06:17:43;;;;;;;1999.90;999.90;;;;;;;8.40;100.00;101118.72;4988148;28;20041;-75
2022/10/31 06:20:23;;;;;;;1999.90;999.90;;;;;;;8.45;100.00;101122.28;4991255;28;20022;-75
2022/10/31 06:22:56;;;;;;;1999.90;999.90;;;;;;;8.46;100.00;101121.41;4991322;28;20050;-75
2022/10/31 06:25:22;;;;;;;1999.90;999.90;;;;;;;8.56;100.00;101124.16;4988997;28;20933;-75
2022/10/31 06:27:48;;;;;;;1999.90;999.90;;;;;;;8.65;100.00;101120.78;4991109;28;20029;-75
2022/10/31 06:30:14;;;;;;;1999.90;999.90;;;;;;;8.71;100.00;101131.34;4990739;28;20408;-74
2022/10/31 06:32:40;;;;;;;1999.90;999.90;;;;;;;8.73;100.00;101132.28;4989062;28;20038;-74
2022/10/31 06:35:06;;;;;;;1999.90;999.90;;;;;;;8.75;100.00;101134.91;4990455;28;20025;-74
2022/10/31 06:37:33;;;;;;;1999.90;999.90;;;;;;;8.81;100.00;101139.38;4989968;28;20033;-74
2022/10/31 06:40:05;;;;;;;1999.90;999.90;;;;;;;8.90;100.00;101147.34;4990218;28;20039;-74
2022/10/31 06:42:43;;;;;;;1999.90;999.90;;;;;;;9.00;100.00;101136.06;4988721;28;20039;-74
2022/10/31 06:45:09;;;;;;;1999.90;999.90;;;;;;;9.16;100.00;101142.34;4990660;28;20085;-74
2022/10/31 06:47:57;;;;;;;1999.90;999.90;;;;;;;9.32;100.00;101140.72;4989146;28;20030;-74
2022/10/31 06:50:26;;;;;;;1999.90;999.90;;;;;;;9.46;100.00;101141.75;4990934;28;20037;-74
2022/10/31 06:52:54;;;;;;;1999.90;999.90;;;;;;;9.55;100.00;101139.16;4990690;28;20035;-74
2022/10/31 06:55:22;;;;;;;1999.90;999.90;;;;;;;9.60;100.00;101145.34;4990528;28;20034;-74
2022/10/31 06:57:59;;;;;;;1999.90;999.90;;;;;;;9.70;100.00;101150.72;4990640;28;20170;-74
2022/10/31 07:00:26;;;;;;;1999.90;999.90;;;;;;;9.79;100.00;101146.38;4990413;28;20566;-74
2022/10/31 07:03:06;;;;;;;1999.90;999.90;;;;;;;9.90;100.00;101148.19;4990734;28;20057;-74
2022/10/31 07:05:33;;;;;;;;;;;;;;;9.97;100.00;101156.16;4989952;28;20034;-74
2022/10/31 07:08:04;;;;;;;1999.90;999.90;;;;;;;10.09;100.00;101160.63;4991847;28;19914;-74
2022/10/31 07:10:31;;;;;;;1999.90;999.90;;;;;;;10.18;100.00;101159.81;4985629;28;20061;-75
2022/10/31 07:13:04;;;;;;;1999.90;999.90;;;;;;;10.25;100.00;101151.06;4989959;28;20026;-74
2022/10/31 07:15:36;;;;;;;1999.90;999.90;;;;;;;10.37;100.00;101163.44;4987098;28;20026;-74
2022/10/31 07:18:03;;;;;;;1999.90;999.90;;;;;;;10.47;100.00;101162.59;4989999;28;20053;-74
2022/10/31 07:20:30;;;;;;;1999.90;999.90;;;;;;;10.59;100.00;101162.66;4989761;28;20029;-74
2022/10/31 07:22:57;;;;;;;1999.90;999.90;;;;;;;10.69;100.00;101171.50;4989114;28;20194;-74
2022/10/31 07:25:24;;;;;;;1999.90;999.90;;;;;;;10.80;100.00;101172.44;4990013;28;20116;-74
2022/10/31 07:28:13;;;;;;;1999.90;999.90;;;;;;;10.92;100.00;101177.72;4986786;28;20066;-74
2022/10/31 07:30:39;;;;;;;1999.90;999.90;;;;;;;11.02;100.00;101175.13;4990423;28;20066;-73
2022/10/31 07:33:05;;;;;;;1999.90;999.90;;;;;;;11.12;100.00;101175.13;4988482;28;20042;-74
2022/10/31 07:36:02;;;;;;;1999.90;999.90;;;;;;;11.22;100.00;101186.63;4989303;28;20050;-73
2022/10/31 07:38:29;;;;;;;1999.90;999.90;;;;;;;11.32;100.00;101176.94;4988291;28;20588;-74
2022/10/31 07:40:58;;;;;;;1999.90;999.90;;;;;;;11.41;100.00;101177.81;4987384;28;20027;-74
2022/10/31 07:43:26;;;;;;;1999.90;999.90;;;;;;;11.51;100.00;101173.41;4987761;28;20485;-74
2022/10/31 07:46:29;;;;;;;1999.90;999.90;;;;;;;11.63;100.00;101173.44;4992089;28;20087;-74
2022/10/31 07:49:17;;;;;;;1999.90;999.90;;;;;;;11.75;100.00;101176.94;4993011;28;20046;-74
2022/10/31 07:52:01;;;;;;;1999.90;999.90;;;;;;;11.85;100.00;101173.41;4992154;28;20105;-75
2022/10/31 07:54:45;;;;;;;1999.90;999.90;;;;;;;11.95;100.00;101169.91;4993227;28;20073;-75
2022/10/31 07:57:10;;;;;;;1999.90;999.90;;;;;;;12.04;100.00;101175.16;4988462;28;20070;-74
2022/10/31 07:59:37;;;;;;;1999.90;999.90;;;;;;;12.14;100.00;101176.03;4993390;28;20049;-75
2022/10/31 08:02:04;;;;;;;1999.90;999.90;;;;;;;12.25;100.00;101179.53;4989215;28;20026;-75
2022/10/31 08:04:30;;;;;;;1999.90;999.90;;;;;;;12.38;100.00;101169.78;4992695;28;20488;-75
2022/10/31 08:07:14;;;;;;;1999.90;999.90;;;;;;;12.47;100.00;101167.13;4994530;28;20053;-76
2022/10/31 08:09:44;;;;;;;1999.90;999.90;;;;;;;12.58;100.00;101180.31;4990256;28;20566;-76
2022/10/31 08:12:18;;;;;;;1999.90;999.90;;;;;;;12.64;100.00;101180.28;4991567;28;20038;-75
2022/10/31 08:14:44;;;;;;;1999.90;999.90;;;;;;;12.73;100.00;101182.00;4994526;28;20488;-75
2022/10/31 08:17:10;;;;;;;1999.90;999.90;;;;;;;12.82;100.00;101191.69;4990891;28;20034;-76
2022/10/31 08:19:44;;;;;;;1999.90;999.90;;;;;;;12.91;100.00;101181.03;4992475;28;20077;-76
2022/10/31 08:22:13;;;;;;;1999.90;999.90;;;;;;;13.00;100.00;101180.13;4991587;28;20038;-76
2022/10/31 08:24:38;;;;;;;1999.90;999.90;;;;;;;13.11;100.00;101179.16;4988493;28;20050;-76
2022/10/31 08:27:03;;;;;;;1999.90;999.90;;;;;;;13.25;100.00;101184.34;4994368;28;20033;-76
2022/10/31 08:29:29;;;;;;;1999.90;999.90;;;;;;;13.35;100.00;101185.22;4994469;28;20046;-77
2022/10/31 08:31:57;;;;;;;1999.90;999.90;;;;;;;13.47;100.00;101179.81;4992091;28;20082;-77
2022/10/31 08:34:41;;;;;;;1999.90;999.90;;;;;;;13.63;100.00;101185.00;4993082;28;20404;-77
2022/10/31 08:37:25;;;;;;;1999.90;999.90;;;;;;;13.74;100.00;101176.06;4993972;28;20057;-77
2022/10/31 08:39:53;;;;;;;1999.90;999.90;;;;;;;13.85;100.00;101181.25;4988303;28;20042;-77
2022/10/31 08:42:19;;;;;;;1999.90;999.90;;;;;;;13.92;100.00;101184.75;4993028;28;20099;-77
2022/10/31 08:44:45;;;;;;;1999.90;999.90;;;;;;;14.00;100.00;101173.16;4992117;28;20496;-77
2022/10/31 08:47:11;;;;;;;1999.90;999.90;;;;;;;14.13;100.00;101178.34;4991782;28;20034;-78
2022/10/31 08:49:37;;;;;;;1999.90;999.90;;;;;;;14.26;100.00;101164.03;4990598;28;20041;-77
2022/10/31 08:52:02;;;;;;;1999.90;999.90;;;;;;;14.39;100.00;101170.97;4992179;28;20129;-77
2022/10/31 08:54:32;;;;;;;1999.90;999.90;;;;;;;14.47;100.00;101176.19;4991344;28;20077;-77
2022/10/31 08:57:32;;;;;;;1999.90;999.90;;;;;;;14.56;100.00;101165.47;4993560;28;20129;-77
2022/10/31 08:59:58;;;;;;;1999.90;999.90;;;;;;;14.65;100.00;101167.16;4992082;28;20053;-77
2022/10/31 09:02:28;;;;;;;1999.90;999.90;;;;;;;14.70;100.00;101165.31;4990861;28;20041;-77
2022/10/31 09:04:57;;;;;;;1999.90;999.90;;;;;;;14.77;100.00;101169.63;4992195;28;20413;-77
2022/10/31 09:07:23;;;;;;;1999.90;999.90;;;;;;;14.85;100.00;101165.09;4992311;28;20062;-77
2022/10/31 09:09:48;;;;;;;1999.90;999.90;;;;;;;14.98;100.00;101160.47;4989537;28;20050;-77
2022/10/31 09:12:14;;;;;;;1999.90;999.90;;;;;;;15.13;100.00;101164.72;4993357;28;20038;-77
2022/10/31 09:15:00;;;;;;;1999.90;999.90;;;;;;;15.29;99.43;101163.56;4992352;28;20077;-77
2022/10/31 09:17:31;;;;;;;1999.90;999.90;;;;;;;15.42;98.36;101166.03;4990345;28;20061;-77
2022/10/31 09:20:22;;;;;;;1999.90;999.90;;;;;;;15.53;97.39;101169.41;4988285;28;20054;-77
2022/10/31 09:22:56;;;;;;;1999.90;999.90;;;;;;;15.60;97.04;101160.41;4992278;28;20519;-77
2022/10/31 09:25:21;;;;;;;1999.90;999.90;;;;;;;15.64;97.09;101162.13;4991970;28;20523;-77
2022/10/31 09:27:59;;;;;;;1999.90;999.90;;;;;;;15.75;96.29;101165.50;4989280;28;20516;-77
2022/10/31 09:30:25;;;;;;;1999.90;999.90;;;;;;;15.87;96.83;101163.53;4990722;28;20066;-77
2022/10/31 09:33:01;;;;;;;1999.90;999.90;;;;;;;15.94;96.70;101165.19;4993170;28;20100;-77
2022/10/31 09:35:29;;;;;;;1999.90;999.90;;;;;;;16.04;96.32;101163.25;4989333;28;20093;-77
2022/10/31 09:38:03;;;;;;;1999.90;999.90;;;;;;;16.11;95.47;101168.41;4993338;28;20440;-77
2022/10/31 09:40:40;;;;;;;1999.90;999.90;;;;;;;16.18;95.86;101170.03;4992020;28;20117;-78
2022/10/31 09:43:37;;;;;;;1999.90;999.90;;;;;;;16.28;95.25;101169.88;4975741;28;20033;-77
2022/10/31 09:46:30;;;;;;;1999.90;999.90;;;;;;;16.28;95.06;101164.56;5007591;28;20042;-77
2022/10/31 09:49:12;;;;;;;1999.90;999.90;;;;;;;16.35;95.31;101161.75;4988283;28;20034;-77
2022/10/31 09:52:02;;;;;;;1999.90;999.90;;;;;;;16.45;94.85;101165.06;4989368;28;20039;-77
2022/10/31 09:54:38;;;;;;;1999.90;999.90;;;;;;;16.56;94.64;101164.88;4991629;28;20030;-77
2022/10/31 09:57:10;;;;;;;1999.90;999.90;;;;;;;16.61;94.07;101163.88;5003826;28;20053;-77
2022/10/31 09:59:40;;;;;;;1999.90;999.90;;;;;;;16.69;94.51;101158.38;4991724;28;20057;-77
2022/10/31 10:02:34;;;;;;;1999.90;999.90;;;;;;;16.80;93.35;101169.72;4988783;28;20034;-77
2022/10/31 10:05:03;;;;;;;1999.90;999.90;;;;;;;16.89;92.82;101170.41;5030125;22;20053;-75
2022/10/31 10:07:55;;;;;;;1999.90;999.90;;;;;;;16.98;92.02;101165.75;5024816;28;20060;-75
2022/10/31 10:10:53;;;;;;;1999.90;999.90;;;;;;;17.07;92.21;101168.22;5040773;28;20033;-75
2022/10/31 10:13:57;;;;;;;1999.90;999.90;;;;;;;17.20;91.62;101165.25;5028587;28;20043;-76
2022/10/31 10:16:37;;;;;;;1999.90;999.90;;;;;;;17.38;91.42;101162.16;5018784;28;20043;-75
2022/10/31 10:19:19;;;;;;;1999.90;999.90;;;;;;;17.54;90.76;101157.31;5020813;28;20116;-75
2022/10/31 10:21:56;;;;;;;1999.90;999.90;;;;;;;17.73;90.33;101155.06;5023535;28;20124;-75
2022/10/31 10:24:33;;;;;;;1999.90;999.90;;;;;;;17.93;89.71;101162.59;5020200;28;20041;-76
2022/10/31 10:27:10;;;;;;;1999.90;999.90;;;;;;;18.12;88.40;101149.59;5014061;28;20062;-75
2022/10/31 10:30:01;;;;;;;1999.90;999.90;;;;;;;18.34;86.68;101150.75;5020846;28;20057;-76
2022/10/31 10:32:31;;;;;;;1999.90;999.90;;;;;;;18.42;85.60;101149.66;5019861;28;20044;-75
2022/10/31 10:35:11;;;;;;;1999.90;999.90;;;;;;;18.55;84.89;101148.41;5023029;28;20044;-75
2022/10/31 10:37:40;;;;;;;1999.90;999.90;;;;;;;18.51;84.29;101146.72;5021134;28;20042;-75
2022/10/31 10:40:16;;;;;;;1999.90;999.90;;;;;;;18.56;84.65;101155.47;5021503;28;20042;-75
2022/10/31 10:48:28;;;;;;;1999.90;999.90;;;;;;;18.42;85.37;101138.94;5019333;28;20191;-75
2022/10/31 10:50:53;;;;;;;1999.90;999.90;;;;;;;18.39;85.96;101137.25;5021673;28;20120;-75
2022/10/31 10:54:00;;;;;;;1999.90;999.90;;;;;;;18.43;86.52;101130.03;5024449;28;20086;-75
2022/10/31 10:56:48;;;;;;;1999.90;999.90;;;;;;;18.48;86.34;101128.09;5021042;28;20048;-75
2022/10/31 10:59:17;;;;;;;1999.90;999.90;;;;;;;18.46;86.58;101127.28;5020624;28;20068;-76
2022/10/31 11:01:44;;;;;;;1999.90;999.90;;;;;;;18.51;86.74;101120.00;5021272;28;20037;-76
2022/10/31 11:04:26;;;;;;;1999.90;999.90;;;;;;;18.54;85.99;101125.25;5023884;28;20037;-76
2022/10/31 11:07:05;;;;;;;1999.90;999.90;;;;;;;18.55;86.31;101110.97;5022869;28;20049;-76
2022/10/31 11:09:32;;;;;;;1999.90;999.90;;;;;;;18.64;86.69;101117.84;5019199;28;20493;-75
2022/10/31 11:11:58;;;;;;;1999.90;999.90;;;;;;;18.66;86.03;101113.31;5007388;28;20034;-76
2022/10/31 11:14:24;;;;;;;1999.90;999.90;;;;;;;18.56;85.21;101112.72;5008016;28;20052;-75
2022/10/31 11:16:55;;;;;;;1999.90;999.90;;;;;;;18.58;86.22;101100.19;5006195;28;20037;-76